createdAt,value
2023-05-09T00:00:33.099Z,0.60
2023-05-09T00:03:00.139Z,0.40
2023-05-09T00:05:27.124Z,0.45
2023-05-09T00:07:53.855Z,0.50
2023-05-09T00:10:20.759Z,0.50
2023-05-09T00:12:49.513Z,0.50
2023-05-09T00:15:16.484Z,0.35
2023-05-09T00:17:44.820Z,0.35
2023-05-09T00:20:12.874Z,0.43
2023-05-09T00:22:41.140Z,0.50
2023-05-09T00:25:12.025Z,0.32
2023-05-09T00:27:38.965Z,0.40
2023-05-09T00:30:06.797Z,0.30
2023-05-09T00:32:34.400Z,0.25
2023-05-09T00:35:01.302Z,0.50
2023-05-09T00:37:30.634Z,0.40
2023-05-09T00:39:57.459Z,0.40
2023-05-09T00:42:24.226Z,0.47
2023-05-09T00:44:50.922Z,0.43
2023-05-09T00:47:17.756Z,0.50
2023-05-09T00:49:44.727Z,0.40
2023-05-09T00:52:11.504Z,0.40
2023-05-09T00:54:38.322Z,0.30
2023-05-09T00:57:05.105Z,0.40
2023-05-09T00:59:31.836Z,0.32
2023-05-09T01:01:58.685Z,0.40
2023-05-09T01:04:25.528Z,0.50
2023-05-09T01:07:06.567Z,0.40
2023-05-09T01:09:57.709Z,0.47
2023-05-09T01:12:46.264Z,0.30
2023-05-09T01:15:23.757Z,0.50
2023-05-09T01:17:58.769Z,0.40
2023-05-09T01:20:46.765Z,0.40
2023-05-09T01:23:44.390Z,0.30
2023-05-09T01:26:26.922Z,0.30
2023-05-09T01:29:16.431Z,0.35
2023-05-09T01:31:45.609Z,0.40
2023-05-09T01:34:16.376Z,0.22
2023-05-09T01:36:44.262Z,0.35
2023-05-09T01:39:13.930Z,0.40
2023-05-09T01:41:40.767Z,0.35
2023-05-09T01:44:11.602Z,0.25
2023-05-09T01:46:39.340Z,0.50
2023-05-09T01:49:08.769Z,0.50
2023-05-09T01:51:38.072Z,0.47
2023-05-09T01:54:06.546Z,0.45
2023-05-09T01:56:36.387Z,0.35
2023-05-09T01:59:04.901Z,0.32
2023-05-09T02:01:32.372Z,0.52
2023-05-09T02:04:00.158Z,0.30
2023-05-09T02:06:29.975Z,0.45
2023-05-09T02:08:57.773Z,0.35
2023-05-09T02:11:24.580Z,0.63
2023-05-09T02:13:51.417Z,0.40
2023-05-09T02:16:20.002Z,0.30
2023-05-09T02:18:48.112Z,0.30
2023-05-09T02:21:14.912Z,0.30
2023-05-09T02:23:41.775Z,0.50
2023-05-09T02:26:09.088Z,0.45
2023-05-09T02:28:36.797Z,0.38
2023-05-09T02:31:09.280Z,0.45
2023-05-09T02:36:06.110Z,0.40
2023-05-09T02:38:33.054Z,0.20
2023-05-09T02:40:59.786Z,0.30
2023-05-09T02:43:26.535Z,0.40
2023-05-09T02:45:53.341Z,0.32
2023-05-09T02:48:20.152Z,0.32
2023-05-09T02:50:47.022Z,0.55
2023-05-09T02:53:13.798Z,0.45
2023-05-09T02:55:40.499Z,0.20
2023-05-09T02:58:14.062Z,0.38
2023-05-09T03:00:42.754Z,0.43
2023-05-09T03:03:09.744Z,0.47
2023-05-09T03:05:36.581Z,0.50
2023-05-09T03:08:03.444Z,0.82
2023-05-09T03:10:30.286Z,0.82
2023-05-09T03:12:57.054Z,0.60
2023-05-09T03:15:24.085Z,0.50
2023-05-09T03:17:50.953Z,0.70
2023-05-09T03:20:17.935Z,0.80
2023-05-09T03:22:44.706Z,0.52
2023-05-09T03:25:11.518Z,0.45
2023-05-09T03:27:38.356Z,0.47
2023-05-09T03:30:05.776Z,0.43
2023-05-09T03:32:32.754Z,0.60
2023-05-09T03:34:59.587Z,1.33
2023-05-09T03:37:27.231Z,4.97
2023-05-09T03:39:54.093Z,4.32
2023-05-09T03:42:21.488Z,3.45
2023-05-09T03:44:48.267Z,3.70
2023-05-09T03:47:15.027Z,3.47
2023-05-09T03:49:41.776Z,4.53
2023-05-09T03:52:08.558Z,4.15
2023-05-09T03:54:35.276Z,4.25
2023-05-09T03:57:02.065Z,3.88
2023-05-09T03:59:28.783Z,3.08
2023-05-09T04:01:55.598Z,3.75
2023-05-09T04:04:22.627Z,3.38
2023-05-09T04:06:49.414Z,2.75
2023-05-09T04:09:16.365Z,2.92
2023-05-09T04:11:43.117Z,3.17
2023-05-09T04:14:09.941Z,3.92
2023-05-09T04:16:36.748Z,8.00
2023-05-09T04:19:04.485Z,6.53
2023-05-09T04:21:32.018Z,5.20
2023-05-09T04:23:58.770Z,4.93
2023-05-09T04:26:25.929Z,5.15
2023-05-09T04:28:53.052Z,4.38
2023-05-09T04:31:20.016Z,4.40
2023-05-09T04:33:46.961Z,4.05
2023-05-09T04:36:13.687Z,4.43
2023-05-09T04:38:40.757Z,3.88
2023-05-09T04:41:08.697Z,3.72
2023-05-09T04:43:35.435Z,3.42
2023-05-09T04:46:02.690Z,3.28
2023-05-09T04:48:29.485Z,3.15
2023-05-09T04:50:56.237Z,2.88
2023-05-09T04:53:22.986Z,3.08
2023-05-09T04:55:49.793Z,2.63
2023-05-09T04:58:16.543Z,2.40
2023-05-09T05:00:43.298Z,3.15
2023-05-09T05:03:10.256Z,3.47
2023-05-09T05:05:37.693Z,3.83
2023-05-09T05:08:04.981Z,3.55
2023-05-09T05:10:31.840Z,3.22
2023-05-09T05:12:58.630Z,20.90
2023-05-09T05:15:27.056Z,95.35
2023-05-09T05:17:53.965Z,284.30
2023-05-09T05:20:21.324Z,226.52
2023-05-09T05:22:48.122Z,254.73
2023-05-09T05:25:15.246Z,240.52
2023-05-09T05:27:42.342Z,240.93
2023-05-09T05:30:09.616Z,238.63
2023-05-09T05:32:36.336Z,224.95
2023-05-09T05:35:05.035Z,226.50
2023-05-09T05:37:32.025Z,203.05
2023-05-09T05:39:58.914Z,197.82
2023-05-09T05:42:25.688Z,175.30
2023-05-09T05:44:52.498Z,170.52
2023-05-09T05:47:19.281Z,168.10
2023-05-09T05:49:46.309Z,159.95
2023-05-09T05:52:13.100Z,154.20
2023-05-09T05:54:39.822Z,147.40
2023-05-09T05:57:08.388Z,142.25
2023-05-09T05:59:35.204Z,127.97
2023-05-09T06:02:01.974Z,129.02
2023-05-09T06:04:29.132Z,121.05
2023-05-09T06:06:56.005Z,115.32
2023-05-09T06:09:22.730Z,112.65
2023-05-09T06:11:49.473Z,99.38
2023-05-09T06:14:16.271Z,96.47
2023-05-09T06:16:43.193Z,90.70
2023-05-09T06:19:09.994Z,89.80
2023-05-09T06:21:36.812Z,84.28
2023-05-09T06:24:10.221Z,83.65
2023-05-09T06:26:44.298Z,81.60
2023-05-09T06:29:11.123Z,74.78
2023-05-09T06:31:39.135Z,69.40
2023-05-09T06:34:06.478Z,66.10
2023-05-09T06:36:33.828Z,63.08
2023-05-09T06:39:01.020Z,63.38
2023-05-09T06:41:27.855Z,60.30
2023-05-09T06:43:54.616Z,58.47
2023-05-09T06:46:21.511Z,57.33
2023-05-09T06:48:48.424Z,51.53
2023-05-09T06:51:15.643Z,52.45
2023-05-09T06:53:42.429Z,51.28
2023-05-09T06:56:09.207Z,47.78
2023-05-09T06:58:36.483Z,45.10
2023-05-09T07:01:04.587Z,45.20
2023-05-09T07:03:31.407Z,43.60
2023-05-09T07:05:59.146Z,41.88
2023-05-09T07:08:26.712Z,41.95
2023-05-09T07:10:53.591Z,48.75
2023-05-09T07:13:20.590Z,89.00
2023-05-09T07:15:47.572Z,103.60
2023-05-09T07:18:14.358Z,99.25
2023-05-09T07:20:41.367Z,104.70
2023-05-09T07:23:08.135Z,92.97
2023-05-09T07:25:34.948Z,88.90
2023-05-09T07:28:01.640Z,87.95
2023-05-09T07:30:28.570Z,70.70
2023-05-09T07:32:55.404Z,82.53
2023-05-09T07:35:22.717Z,86.28
2023-05-09T07:37:49.513Z,92.45
2023-05-09T07:40:16.631Z,91.50
2023-05-09T07:42:49.737Z,86.30
2023-05-09T07:45:17.180Z,84.53
2023-05-09T07:47:44.744Z,76.90
2023-05-09T07:50:11.580Z,78.05
2023-05-09T07:52:38.386Z,70.90
2023-05-09T07:55:05.708Z,79.60
2023-05-09T07:57:32.565Z,110.43
2023-05-09T07:59:59.354Z,62.25
2023-05-09T08:02:26.261Z,68.13
2023-05-09T08:04:53.080Z,62.33
2023-05-09T08:07:19.940Z,55.78
2023-05-09T08:09:46.700Z,58.88
2023-05-09T08:12:13.514Z,54.40
2023-05-09T08:14:40.866Z,54.30
2023-05-09T08:17:07.719Z,52.97
2023-05-09T08:19:34.434Z,53.22
2023-05-09T08:22:01.395Z,49.70
2023-05-09T08:24:28.236Z,48.25
2023-05-09T08:26:55.126Z,47.38
2023-05-09T08:29:21.890Z,45.90
2023-05-09T08:31:48.765Z,41.75
2023-05-09T08:34:16.092Z,42.15
2023-05-09T08:36:45.610Z,41.33
2023-05-09T08:39:12.417Z,39.67
2023-05-09T08:41:39.811Z,38.53
2023-05-09T08:44:07.387Z,37.05
2023-05-09T08:46:39.817Z,35.95
2023-05-09T08:51:36.808Z,35.53
2023-05-09T08:54:04.046Z,33.33
2023-05-09T08:56:31.932Z,31.55
2023-05-09T08:58:59.146Z,30.13
2023-05-09T09:01:27.058Z,32.35
2023-05-09T09:03:54.352Z,31.38
2023-05-09T09:06:23.608Z,30.35
2023-05-09T09:08:51.092Z,29.17
2023-05-09T09:11:18.926Z,29.30
2023-05-09T09:13:47.013Z,26.88
2023-05-09T09:16:20.587Z,28.02
2023-05-09T09:18:47.888Z,27.15
2023-05-09T09:21:19.371Z,27.38
2023-05-09T09:23:47.667Z,27.20
2023-05-09T09:26:15.139Z,26.30
2023-05-09T09:28:42.728Z,23.73
2023-05-09T09:31:31.754Z,24.90
2023-05-09T09:34:03.036Z,22.55
2023-05-09T09:36:32.351Z,23.17
2023-05-09T09:39:00.675Z,22.30
2023-05-09T09:41:38.749Z,20.83
2023-05-09T09:44:14.008Z,19.95
2023-05-09T09:46:55.198Z,34.35
2023-05-09T09:49:22.965Z,33.35
2023-05-09T09:57:06.028Z,25.23
2023-05-09T09:59:32.535Z,24.83
2023-05-09T10:02:08.440Z,24.25
2023-05-09T10:04:37.541Z,21.88
2023-05-09T10:07:06.201Z,20.73
2023-05-09T10:09:34.783Z,19.98
2023-05-09T10:12:06.723Z,19.52
2023-05-09T10:14:36.412Z,18.17
2023-05-09T10:17:05.612Z,17.33
2023-05-09T10:19:32.867Z,16.33
2023-05-09T10:22:04.774Z,16.55
2023-05-09T10:24:39.725Z,15.75
2023-05-09T10:27:10.411Z,14.20
2023-05-09T10:30:04.941Z,13.60
2023-05-09T10:32:51.722Z,13.82
2023-05-09T10:35:19.983Z,15.63
2023-05-09T10:37:46.692Z,16.08
2023-05-09T10:40:16.795Z,15.43
2023-05-09T10:42:43.984Z,14.10
2023-05-09T10:45:12.589Z,14.90
2023-05-09T10:47:44.013Z,11.23
2023-05-09T10:50:15.392Z,12.02
2023-05-09T10:53:17.925Z,12.80
2023-05-09T10:55:47.714Z,14.23
2023-05-09T10:58:23.847Z,14.20
2023-05-09T11:00:52.298Z,13.50
2023-05-09T11:03:19.498Z,13.55
2023-05-09T11:05:48.750Z,12.73
2023-05-09T11:08:19.461Z,11.98
2023-05-09T11:10:46.086Z,10.52
2023-05-09T11:13:12.696Z,12.20
2023-05-09T11:16:05.025Z,10.50
2023-05-09T11:18:32.822Z,9.82
2023-05-09T11:20:59.958Z,9.38
2023-05-09T11:23:27.573Z,10.13
2023-05-09T11:26:05.128Z,9.55
2023-05-09T11:28:35.150Z,9.18
2023-05-09T11:31:12.199Z,8.90
2023-05-09T11:33:40.213Z,7.93
2023-05-09T11:36:31.935Z,8.20
2023-05-09T11:39:09.550Z,9.07
2023-05-09T11:41:43.970Z,8.55
2023-05-09T11:44:18.511Z,8.25
2023-05-09T11:46:46.790Z,7.60
2023-05-09T11:49:13.700Z,8.05
2023-05-09T11:51:40.505Z,7.75
2023-05-09T11:54:08.862Z,7.30
2023-05-09T11:56:36.411Z,6.90
2023-05-09T11:59:03.022Z,7.68
2023-05-09T12:01:30.334Z,6.85
2023-05-09T12:03:59.183Z,7.22
2023-05-09T12:06:29.964Z,6.75
2023-05-09T12:08:57.747Z,5.57
2023-05-09T12:11:24.611Z,6.50
2023-05-09T12:13:52.684Z,5.50
2023-05-09T12:16:20.490Z,5.90
2023-05-09T12:18:52.724Z,4.82
2023-05-09T12:21:20.047Z,5.10
2023-05-09T12:23:49.901Z,5.20
2023-05-09T12:26:18.312Z,4.60
2023-05-09T12:28:45.068Z,4.60
2023-05-09T12:31:12.465Z,4.20
2023-05-09T12:33:39.785Z,4.13
2023-05-09T12:36:11.697Z,4.15
2023-05-09T12:38:38.836Z,3.75
2023-05-09T12:41:21.911Z,4.13
2023-05-09T12:43:56.662Z,3.35
2023-05-09T12:46:23.507Z,3.58
2023-05-09T12:48:50.244Z,3.22
2023-05-09T12:51:21.309Z,3.30
2023-05-09T12:53:48.288Z,3.58
2023-05-09T12:56:19.657Z,3.08
2023-05-09T12:58:54.667Z,2.65
2023-05-09T13:01:27.305Z,3.00
2023-05-09T13:04:05.815Z,2.90
2023-05-09T13:09:05.846Z,2.53
2023-05-09T13:11:32.416Z,2.42
2023-05-09T13:13:58.985Z,2.58
2023-05-09T13:16:25.595Z,2.60
2023-05-09T13:18:52.135Z,2.55
2023-05-09T13:21:19.311Z,2.78
2023-05-09T13:23:46.049Z,2.28
2023-05-09T13:26:12.652Z,2.10
2023-05-09T13:28:39.243Z,2.55
2023-05-09T13:31:06.825Z,2.55
2023-05-09T13:33:33.708Z,2.33
2023-05-09T13:36:00.335Z,2.20
2023-05-09T13:38:27.103Z,2.70
2023-05-09T13:40:53.824Z,2.60
2023-05-09T13:43:20.337Z,2.40
2023-05-09T13:45:46.874Z,2.33
2023-05-09T13:48:13.599Z,1.95
2023-05-09T13:50:40.166Z,2.30
2023-05-09T13:53:06.772Z,2.20
2023-05-09T13:55:34.504Z,2.13
2023-05-09T13:58:01.052Z,2.20
2023-05-09T14:00:27.670Z,2.03
2023-05-09T14:02:54.356Z,1.98
2023-05-09T14:05:21.067Z,2.40
2023-05-09T14:07:47.624Z,2.63
2023-05-09T14:10:14.269Z,2.70
2023-05-09T14:12:44.152Z,2.53
2023-05-09T14:15:11.382Z,2.70
2023-05-09T14:17:38.107Z,2.42
2023-05-09T14:20:05.128Z,2.42
2023-05-09T14:22:31.650Z,2.28
2023-05-09T14:24:59.028Z,2.30
2023-05-09T14:27:26.279Z,2.95
2023-05-09T14:29:53.090Z,3.70
2023-05-09T14:32:19.640Z,2.95
2023-05-09T14:34:46.654Z,2.92
2023-05-09T14:37:16.074Z,2.80
2023-05-09T14:39:45.022Z,2.80
2023-05-09T14:42:14.103Z,3.30
2023-05-09T14:44:41.441Z,3.10
2023-05-09T14:47:09.281Z,3.10
2023-05-09T14:49:37.244Z,3.50
2023-05-09T14:52:03.839Z,3.38
2023-05-09T14:54:30.420Z,3.47
2023-05-09T14:56:57.457Z,3.00
2023-05-09T14:59:24.086Z,3.05
2023-05-09T15:01:51.735Z,2.60
2023-05-09T15:04:18.384Z,3.25
2023-05-09T15:06:45.469Z,2.90
2023-05-09T15:09:12.950Z,2.75
2023-05-09T15:11:47.724Z,2.92
2023-05-09T15:14:16.312Z,3.83
2023-05-09T15:16:43.019Z,6.53
2023-05-09T15:19:09.824Z,4.70
2023-05-09T15:21:36.475Z,4.78
2023-05-09T15:24:03.682Z,4.88
2023-05-09T15:26:30.519Z,6.32
2023-05-09T15:28:57.066Z,6.85
2023-05-09T15:31:24.838Z,6.97
2023-05-09T15:33:51.751Z,6.13
2023-05-09T15:36:18.250Z,6.32
2023-05-09T15:38:48.365Z,7.38
2023-05-09T15:41:15.413Z,9.50
2023-05-09T15:43:42.129Z,9.43
2023-05-09T15:46:08.884Z,9.20
2023-05-09T15:48:35.474Z,8.02
2023-05-09T15:51:04.062Z,8.02
2023-05-09T15:53:30.755Z,8.15
2023-05-09T15:55:57.411Z,7.68
2023-05-09T15:58:23.980Z,7.75
2023-05-09T16:00:50.906Z,7.78
2023-05-09T16:03:18.249Z,7.35
2023-05-09T16:05:45.071Z,7.05
2023-05-09T16:08:12.038Z,6.88
2023-05-09T16:10:38.700Z,7.00
2023-05-09T16:13:05.358Z,6.80
2023-05-09T16:15:32.260Z,6.28
2023-05-09T16:17:58.785Z,5.93
2023-05-09T16:20:25.323Z,6.32
2023-05-09T16:22:51.883Z,5.85
2023-05-09T16:25:18.453Z,5.82
2023-05-09T16:27:45.004Z,5.82
2023-05-09T16:30:12.086Z,5.70
2023-05-09T16:32:38.764Z,5.97
2023-05-09T16:35:06.288Z,5.25
2023-05-09T16:37:34.146Z,5.25
2023-05-09T16:40:02.252Z,5.45
2023-05-09T16:42:28.824Z,5.00
2023-05-09T16:44:55.958Z,4.95
2023-05-09T16:47:22.581Z,4.63
2023-05-09T16:49:49.177Z,5.20
2023-05-09T16:52:15.770Z,4.55
2023-05-09T16:54:42.336Z,4.55
2023-05-09T16:57:08.917Z,4.10
2023-05-09T16:59:35.550Z,4.40
2023-05-09T17:02:02.201Z,4.63
2023-05-09T17:04:29.358Z,4.28
2023-05-09T17:06:56.063Z,3.67
2023-05-09T17:09:22.737Z,4.45
2023-05-09T17:11:49.370Z,3.92
2023-05-09T17:14:15.946Z,3.67
2023-05-09T17:16:42.590Z,4.07
2023-05-09T17:19:09.206Z,3.72
2023-05-09T17:21:35.836Z,3.67
2023-05-09T17:24:02.393Z,3.42
2023-05-09T17:26:29.672Z,3.75
2023-05-09T17:28:56.337Z,3.22
2023-05-09T17:31:23.026Z,3.55
2023-05-09T17:33:49.976Z,3.42
2023-05-09T17:36:16.513Z,3.30
2023-05-09T17:38:43.508Z,3.10
2023-05-09T17:41:10.030Z,3.10
2023-05-09T17:43:36.588Z,3.03
2023-05-09T17:46:03.745Z,2.83
2023-05-09T17:48:30.377Z,3.13
2023-05-09T17:50:56.863Z,3.15
2023-05-09T17:53:23.649Z,2.97
2023-05-09T17:55:50.669Z,2.53
2023-05-09T17:58:17.221Z,2.53
2023-05-09T18:00:44.642Z,3.05
2023-05-09T18:03:11.444Z,2.58
2023-05-09T18:05:38.069Z,2.53
2023-05-09T18:08:05.619Z,2.42
2023-05-09T18:10:32.242Z,2.40
2023-05-09T18:12:58.811Z,2.33
2023-05-09T18:15:26.303Z,2.28
2023-05-09T18:17:54.636Z,2.25
2023-05-09T18:20:21.424Z,2.20
2023-05-09T18:22:48.039Z,2.30
2023-05-09T18:25:14.623Z,2.03
2023-05-09T18:27:41.216Z,2.20
2023-05-09T18:30:08.412Z,2.42
2023-05-09T18:32:35.056Z,2.60
2023-05-09T18:35:01.661Z,2.25
2023-05-09T18:37:28.214Z,2.20
2023-05-09T18:39:54.823Z,2.53
2023-05-09T18:42:21.370Z,2.35
2023-05-09T18:44:47.927Z,1.95
2023-05-09T18:47:15.221Z,1.88
2023-05-09T18:49:42.058Z,2.20
2023-05-09T18:52:09.460Z,2.03
2023-05-09T18:54:36.551Z,3.35
2023-05-09T18:57:03.352Z,1.77
2023-05-09T18:59:29.937Z,1.80
2023-05-09T19:01:56.520Z,2.10
2023-05-09T19:04:23.186Z,2.17
2023-05-09T19:06:49.827Z,421.45
2023-05-09T19:09:16.591Z,432.70
2023-05-09T19:11:43.307Z,169.13
2023-05-09T19:14:09.903Z,226.82
2023-05-09T19:16:36.464Z,223.90
2023-05-09T19:19:03.055Z,261.77
2023-05-09T19:21:29.751Z,264.40
2023-05-09T19:23:56.372Z,234.27
2023-05-09T19:26:22.940Z,234.90
2023-05-09T19:28:49.464Z,216.68
2023-05-09T19:31:16.251Z,349.30
2023-05-09T19:33:45.536Z,300.25
2023-05-09T19:36:12.859Z,355.42
2023-05-09T19:38:39.570Z,358.75
2023-05-09T19:41:06.117Z,386.42
2023-05-09T19:43:32.690Z,356.10
2023-05-09T19:46:00.043Z,358.98
2023-05-09T19:48:26.758Z,342.05
2023-05-09T19:50:57.801Z,329.90
2023-05-09T19:53:25.142Z,321.83
2023-05-09T19:55:51.847Z,289.08
2023-05-09T19:58:18.435Z,298.25
2023-05-09T20:00:45.933Z,290.05
2023-05-09T20:03:12.896Z,285.88
2023-05-09T20:05:39.569Z,263.38
2023-05-09T20:08:06.165Z,251.27
2023-05-09T20:10:33.024Z,254.95
2023-05-09T20:13:00.882Z,237.93
2023-05-09T20:15:27.857Z,232.18
2023-05-09T20:17:56.706Z,222.48
2023-05-09T20:20:23.394Z,206.68
2023-05-09T20:22:50.886Z,198.95
2023-05-09T20:25:17.445Z,190.25
2023-05-09T20:27:44.099Z,177.05
2023-05-09T20:30:11.205Z,172.55
2023-05-09T20:32:37.776Z,167.55
2023-05-09T20:35:04.654Z,153.35
2023-05-09T20:37:31.236Z,148.18
2023-05-09T20:39:57.837Z,146.13
2023-05-09T20:42:24.477Z,143.10
2023-05-09T20:44:51.634Z,133.48
2023-05-09T20:47:18.496Z,128.05
2023-05-09T20:49:44.980Z,126.18
2023-05-09T20:52:11.560Z,119.47
2023-05-09T20:54:38.311Z,122.20
2023-05-09T20:57:04.869Z,114.88
2023-05-09T20:59:31.467Z,107.90
2023-05-09T21:01:58.141Z,105.43
2023-05-09T21:04:24.999Z,102.10
2023-05-09T21:06:51.594Z,95.93
2023-05-09T21:09:18.883Z,92.15
2023-05-09T21:11:46.054Z,93.82
2023-05-09T21:14:12.827Z,87.38
2023-05-09T21:16:39.558Z,83.72
2023-05-09T21:19:06.864Z,79.38
2023-05-09T21:21:33.454Z,82.57
2023-05-09T21:24:03.156Z,72.82
2023-05-09T21:26:30.511Z,65.78
2023-05-09T21:28:57.011Z,67.70
2023-05-09T21:31:23.632Z,70.15
2023-05-09T21:33:50.289Z,59.10
2023-05-09T21:36:16.841Z,64.22
2023-05-09T21:38:43.377Z,56.75
2023-05-09T21:41:10.179Z,56.53
2023-05-09T21:43:37.500Z,51.67
2023-05-09T21:46:05.506Z,50.95
2023-05-09T21:48:32.308Z,48.70
2023-05-09T21:51:02.729Z,46.63
2023-05-09T21:53:29.415Z,45.30
2023-05-09T21:55:55.925Z,43.30
2023-05-09T21:58:22.453Z,40.47
2023-05-09T22:00:48.986Z,41.35
2023-05-09T22:03:15.663Z,37.85
2023-05-09T22:05:42.273Z,36.42
2023-05-09T22:08:09.249Z,36.42
2023-05-09T22:10:37.457Z,34.67
2023-05-09T22:13:04.117Z,32.17
2023-05-09T22:15:30.745Z,32.88
2023-05-09T22:17:57.422Z,31.92
2023-05-09T22:20:24.162Z,30.10
2023-05-09T22:22:50.726Z,28.50
2023-05-09T22:25:17.603Z,28.27
2023-05-09T22:27:44.243Z,27.40
2023-05-09T22:30:12.506Z,27.67
2023-05-09T22:32:39.598Z,24.45
2023-05-09T22:35:06.920Z,24.63
2023-05-09T22:37:33.617Z,23.20
2023-05-09T22:40:03.080Z,22.20
2023-05-09T22:42:29.626Z,20.88
2023-05-09T22:44:56.284Z,19.73
2023-05-09T22:47:23.240Z,20.15
2023-05-09T22:49:50.525Z,17.92
2023-05-09T22:52:17.410Z,17.60
2023-05-09T22:54:44.195Z,17.15
2023-05-09T22:57:11.423Z,16.80
2023-05-09T22:59:38.179Z,16.55
2023-05-09T23:02:04.948Z,15.35
2023-05-09T23:04:31.560Z,16.70
2023-05-09T23:06:58.106Z,15.43
2023-05-09T23:09:24.683Z,14.45
2023-05-09T23:11:51.847Z,13.77
2023-05-09T23:14:18.629Z,12.10
2023-05-09T23:16:45.166Z,11.40
2023-05-09T23:19:11.828Z,12.30
2023-05-09T23:21:38.387Z,10.45
2023-05-09T23:24:05.148Z,10.27
2023-05-09T23:26:32.304Z,10.68
2023-05-09T23:28:58.879Z,9.75
2023-05-09T23:31:25.450Z,9.35
2023-05-09T23:33:52.345Z,9.23
2023-05-09T23:36:18.963Z,9.15
2023-05-09T23:38:45.515Z,8.95
2023-05-09T23:41:12.685Z,8.07
2023-05-09T23:43:39.574Z,7.85
2023-05-09T23:46:06.143Z,7.90
2023-05-09T23:48:32.724Z,7.13
2023-05-09T23:50:59.265Z,7.22
2023-05-09T23:53:26.188Z,6.85
2023-05-09T23:55:52.733Z,6.43
2023-05-09T23:58:19.253Z,5.90
